createdAt,value
2018-06-03T00:00:17.092Z,1013.64
2018-06-03T00:01:17.025Z,1013.61
2018-06-03T00:02:16.955Z,1013.62
2018-06-03T00:03:16.884Z,1013.58
2018-06-03T00:04:16.817Z,1013.61
2018-06-03T00:05:37.728Z,1013.62
2018-06-03T00:06:16.671Z,1013.59
2018-06-03T00:07:16.609Z,1013.56
2018-06-03T00:08:16.528Z,1013.58
2018-06-03T00:09:16.453Z,1013.56
2018-06-03T00:10:16.388Z,1013.55
2018-06-03T00:11:37.302Z,1013.55
2018-06-03T00:12:16.240Z,1013.52
2018-06-03T00:13:16.180Z,1013.54
2018-06-03T00:14:16.107Z,1013.54
2018-06-03T00:15:16.045Z,1013.47
2018-06-03T00:16:15.995Z,1013.48
2018-06-03T00:17:36.872Z,1013.54
2018-06-03T00:18:15.823Z,1013.45
2018-06-03T00:19:15.750Z,1013.48
2018-06-03T00:20:15.677Z,1013.41
2018-06-03T00:21:15.613Z,1013.44
2018-06-03T00:22:15.540Z,1013.44
2018-06-03T00:23:36.454Z,1013.41
2018-06-03T00:24:15.391Z,1013.37
2018-06-03T00:25:15.327Z,1013.42
2018-06-03T00:26:15.302Z,1013.41
2018-06-03T00:27:15.186Z,1013.43
2018-06-03T00:28:15.119Z,1013.43
2018-06-03T00:29:36.034Z,1013.44
2018-06-03T00:30:14.973Z,1013.46
2018-06-03T00:31:14.898Z,1013.46
2018-06-03T00:32:14.840Z,1013.43
2018-06-03T00:33:14.756Z,1013.43
2018-06-03T00:34:14.696Z,1013.43
2018-06-03T00:35:35.601Z,1013.37
2018-06-03T00:36:14.555Z,1013.37
2018-06-03T00:37:14.480Z,1013.37
2018-06-03T00:38:14.401Z,1013.35
2018-06-03T00:39:14.348Z,1013.33
2018-06-03T00:40:14.277Z,1013.36
2018-06-03T00:41:35.194Z,1013.34
2018-06-03T00:42:14.119Z,1013.35
2018-06-03T00:43:14.056Z,1013.36
2018-06-03T00:44:13.985Z,1013.37
2018-06-03T00:45:13.911Z,1013.34
2018-06-03T00:46:13.834Z,1013.37
2018-06-03T00:47:34.790Z,1013.35
2018-06-03T00:48:13.702Z,1013.35
2018-06-03T00:49:13.623Z,1013.35
2018-06-03T00:50:13.560Z,1013.36
2018-06-03T00:51:13.485Z,1013.31
2018-06-03T00:52:13.410Z,1013.34
2018-06-03T00:53:34.324Z,1013.29
2018-06-03T00:54:13.267Z,1013.33
2018-06-03T00:55:13.199Z,1013.38
2018-06-03T00:56:13.129Z,1013.38
2018-06-03T00:57:13.057Z,1013.40
2018-06-03T00:58:12.983Z,1013.33
2018-06-03T00:59:33.900Z,1013.37
2018-06-03T01:00:12.844Z,1013.34
2018-06-03T01:01:12.775Z,1013.34
2018-06-03T01:02:12.720Z,1013.34
2018-06-03T01:03:12.639Z,1013.34
2018-06-03T01:04:12.564Z,1013.33
2018-06-03T01:05:33.479Z,1013.29
2018-06-03T01:06:12.417Z,1013.32
2018-06-03T01:07:12.347Z,1013.27
2018-06-03T01:08:12.287Z,1013.31
2018-06-03T01:09:12.205Z,1013.23
2018-06-03T01:10:12.139Z,1013.27
2018-06-03T01:11:33.050Z,1013.24
2018-06-03T01:12:11.997Z,1013.25
2018-06-03T01:13:11.928Z,1013.22
2018-06-03T01:14:11.849Z,1013.25
2018-06-03T01:15:11.777Z,1013.23
2018-06-03T01:16:11.717Z,1013.24
2018-06-03T01:17:32.621Z,1013.24
2018-06-03T01:18:11.565Z,1013.26
2018-06-03T01:19:11.491Z,1013.23
2018-06-03T01:20:11.440Z,1013.23
2018-06-03T01:21:11.358Z,1013.25
2018-06-03T01:22:11.288Z,1013.24
2018-06-03T01:23:32.206Z,1013.26
2018-06-03T01:24:11.141Z,1013.23
2018-06-03T01:25:11.081Z,1013.25
2018-06-03T01:26:11.000Z,1013.22
2018-06-03T01:27:10.929Z,1013.23
2018-06-03T01:28:10.856Z,1013.23
2018-06-03T01:29:31.769Z,1013.26
2018-06-03T01:30:10.735Z,1013.21
2018-06-03T01:31:10.641Z,1013.16
2018-06-03T01:32:10.575Z,1013.20
2018-06-03T01:33:10.501Z,1013.18
2018-06-03T01:34:10.432Z,1013.17
2018-06-03T01:35:31.351Z,1013.16
2018-06-03T01:36:10.315Z,1013.19
2018-06-03T01:37:10.220Z,1013.24
2018-06-03T01:38:10.152Z,1013.20
2018-06-03T01:39:10.084Z,1013.17
2018-06-03T01:40:10.017Z,1013.17
2018-06-03T01:41:30.914Z,1013.22
2018-06-03T01:42:09.877Z,1013.15
2018-06-03T01:43:09.795Z,1013.13
2018-06-03T01:44:09.719Z,1013.17
2018-06-03T01:45:09.654Z,1013.14
2018-06-03T01:46:09.589Z,1013.15
2018-06-03T01:47:30.522Z,1013.15
2018-06-03T01:48:09.436Z,1013.16
2018-06-03T01:49:09.364Z,1013.10
2018-06-03T01:50:09.293Z,1013.10
2018-06-03T01:51:09.223Z,1013.13
2018-06-03T01:52:09.157Z,1013.10
2018-06-03T01:53:30.072Z,1013.07
2018-06-03T01:54:09.013Z,1013.06
2018-06-03T01:55:08.947Z,1013.01
2018-06-03T01:56:08.875Z,1013.01
2018-06-03T01:57:08.794Z,1013.01
2018-06-03T01:58:08.735Z,1013.02
2018-06-03T01:59:29.641Z,1013.07
2018-06-03T02:00:08.583Z,1013.07
2018-06-03T02:01:08.512Z,1013.11
2018-06-03T02:02:08.453Z,1013.06
2018-06-03T02:03:08.379Z,1013.06
2018-06-03T02:04:08.308Z,1013.03
2018-06-03T02:05:29.214Z,1013.05
2018-06-03T02:06:08.162Z,1013.02
2018-06-03T02:07:08.093Z,1013.07
2018-06-03T02:08:08.026Z,1013.03
2018-06-03T02:09:07.943Z,1013.04
2018-06-03T02:10:07.879Z,1013.07
2018-06-03T02:11:28.792Z,1013.03
2018-06-03T02:12:07.736Z,1013.02
2018-06-03T02:13:07.668Z,1012.98
2018-06-03T02:14:07.593Z,1012.95
2018-06-03T02:15:07.522Z,1012.94
2018-06-03T02:16:07.450Z,1012.96
2018-06-03T02:17:28.367Z,1012.96
2018-06-03T02:18:07.310Z,1012.92
2018-06-03T02:19:07.236Z,1012.93
2018-06-03T02:20:07.170Z,1012.92
2018-06-03T02:21:07.091Z,1012.91
2018-06-03T02:22:07.019Z,1012.90
2018-06-03T02:23:27.943Z,1012.91
2018-06-03T02:24:06.879Z,1012.88
2018-06-03T02:25:06.821Z,1012.87
2018-06-03T02:26:06.738Z,1012.89
2018-06-03T02:27:06.669Z,1012.94
2018-06-03T02:28:06.604Z,1012.90
2018-06-03T02:29:27.517Z,1012.87
2018-06-03T02:30:06.455Z,1012.88
2018-06-03T02:31:06.397Z,1012.88
2018-06-03T02:32:06.321Z,1012.91
2018-06-03T02:33:06.242Z,1012.92
2018-06-03T02:34:06.169Z,1012.96
2018-06-03T02:35:27.094Z,1012.93
2018-06-03T02:36:06.040Z,1012.92
2018-06-03T02:37:05.965Z,1012.87
2018-06-03T02:38:05.922Z,1012.92
2018-06-03T02:39:05.817Z,1012.92
2018-06-03T02:40:05.755Z,1012.94
2018-06-03T02:41:26.681Z,1012.92
2018-06-03T02:42:05.607Z,1012.89
2018-06-03T02:43:05.539Z,1012.89
2018-06-03T02:44:05.479Z,1012.87
2018-06-03T02:45:05.400Z,1012.88
2018-06-03T02:46:05.323Z,1012.87
2018-06-03T02:47:26.240Z,1012.86
2018-06-03T02:48:05.182Z,1012.84
2018-06-03T02:49:05.110Z,1012.83
2018-06-03T02:50:05.037Z,1012.82
2018-06-03T02:51:04.967Z,1012.83
2018-06-03T02:52:04.897Z,1012.85
2018-06-03T02:53:25.813Z,1012.84
2018-06-03T02:54:04.751Z,1012.81
2018-06-03T02:55:04.683Z,1012.80
2018-06-03T02:56:04.623Z,1012.79
2018-06-03T02:57:04.553Z,1012.77
2018-06-03T02:58:04.472Z,1012.81
2018-06-03T02:59:25.384Z,1012.80
2018-06-03T03:00:04.331Z,1012.76
2018-06-03T03:01:04.258Z,1012.80
2018-06-03T03:02:04.221Z,1012.79
2018-06-03T03:03:04.124Z,1012.79
2018-06-03T03:04:04.050Z,1012.83
2018-06-03T03:05:24.958Z,1012.81
2018-06-03T03:06:03.909Z,1012.80
2018-06-03T03:07:03.852Z,1012.80
2018-06-03T03:08:03.764Z,1012.80
2018-06-03T03:09:03.694Z,1012.81
2018-06-03T03:10:03.623Z,1012.82
2018-06-03T03:11:24.555Z,1012.82
2018-06-03T03:12:03.479Z,1012.77
2018-06-03T03:13:03.416Z,1012.82
2018-06-03T03:14:03.346Z,1012.79
2018-06-03T03:15:03.261Z,1012.79
2018-06-03T03:16:03.196Z,1012.79
2018-06-03T03:17:24.115Z,1012.75
2018-06-03T03:18:03.058Z,1012.84
2018-06-03T03:19:03.063Z,1012.78
2018-06-03T03:20:02.918Z,1012.80
2018-06-03T03:21:02.846Z,1012.79
2018-06-03T03:22:02.768Z,1012.78
2018-06-03T03:23:23.686Z,1012.78
2018-06-03T03:24:02.627Z,1012.78
2018-06-03T03:25:02.552Z,1012.81
2018-06-03T03:26:02.491Z,1012.80
2018-06-03T03:27:02.417Z,1012.84
2018-06-03T03:28:02.343Z,1012.83
2018-06-03T03:29:23.275Z,1012.88
2018-06-03T03:30:02.204Z,1012.88
2018-06-03T03:31:02.146Z,1012.85
2018-06-03T03:32:02.076Z,1012.86
2018-06-03T03:33:01.991Z,1012.90
2018-06-03T03:34:01.915Z,1012.91
2018-06-03T03:35:22.836Z,1012.92
2018-06-03T03:36:01.788Z,1012.91
2018-06-03T03:37:01.704Z,1012.97
2018-06-03T03:38:01.629Z,1012.98
2018-06-03T03:39:01.566Z,1012.99
2018-06-03T03:40:01.494Z,1012.99
2018-06-03T03:41:22.404Z,1012.96
2018-06-03T03:42:01.378Z,1012.95
2018-06-03T03:43:01.281Z,1012.97
2018-06-03T03:44:01.233Z,1012.98
2018-06-03T03:45:01.133Z,1012.98
2018-06-03T03:46:01.065Z,1012.97
2018-06-03T03:47:21.979Z,1012.90
2018-06-03T03:48:00.931Z,1012.95
2018-06-03T03:49:00.853Z,1012.95
2018-06-03T03:50:00.783Z,1012.89
2018-06-03T03:51:00.703Z,1012.89
2018-06-03T03:52:00.652Z,1012.87
2018-06-03T03:53:21.557Z,1012.84
2018-06-03T03:54:00.512Z,1012.84
2018-06-03T03:55:00.429Z,1012.85
2018-06-03T03:56:00.368Z,1012.89
2018-06-03T03:57:00.283Z,1012.86
2018-06-03T03:58:00.234Z,1012.83
2018-06-03T03:59:21.128Z,1012.85
2018-06-03T04:00:00.074Z,1012.86
2018-06-03T04:01:00.002Z,1012.91
2018-06-03T04:01:59.956Z,1012.89
2018-06-03T04:02:59.864Z,1012.91
2018-06-03T04:03:59.806Z,1012.89
2018-06-03T04:05:20.712Z,1012.88
2018-06-03T04:05:59.644Z,1012.86
2018-06-03T04:06:59.567Z,1012.88
2018-06-03T04:07:59.513Z,1012.90
2018-06-03T04:08:59.427Z,1012.89
2018-06-03T04:09:59.372Z,1012.90
2018-06-03T04:11:20.273Z,1012.89
2018-06-03T04:11:59.219Z,1012.83
2018-06-03T04:12:59.151Z,1012.85
2018-06-03T04:13:59.086Z,1012.86
2018-06-03T04:14:59.015Z,1012.82
2018-06-03T04:15:58.931Z,1012.79
2018-06-03T04:17:19.843Z,1012.85
2018-06-03T04:17:58.792Z,1012.85
2018-06-03T04:18:58.715Z,1012.84
2018-06-03T04:19:58.652Z,1012.87
2018-06-03T04:20:58.576Z,1012.90
2018-06-03T04:21:58.506Z,1012.90
2018-06-03T04:23:19.486Z,1012.88
2018-06-03T04:23:58.368Z,1012.93
2018-06-03T04:24:58.290Z,1012.92
2018-06-03T04:25:58.214Z,1012.92
2018-06-03T04:26:58.149Z,1012.94
2018-06-03T04:27:58.089Z,1012.97
2018-06-03T04:29:18.994Z,1012.90
2018-06-03T04:29:57.940Z,1012.93
2018-06-03T04:30:57.862Z,1012.96
2018-06-03T04:31:57.789Z,1012.96
2018-06-03T04:32:57.723Z,1012.96
2018-06-03T04:33:57.649Z,1012.96
2018-06-03T04:35:18.567Z,1012.96
2018-06-03T04:35:57.511Z,1012.95
2018-06-03T04:36:57.434Z,1012.97
2018-06-03T04:37:57.368Z,1012.99
2018-06-03T04:38:57.289Z,1013.03
2018-06-03T04:39:57.218Z,1013.00
2018-06-03T04:41:18.159Z,1013.03
2018-06-03T04:41:57.071Z,1013.03
2018-06-03T04:42:57.011Z,1012.99
2018-06-03T04:43:56.946Z,1013.01
2018-06-03T04:44:56.860Z,1013.05
2018-06-03T04:45:56.788Z,1013.06
2018-06-03T04:47:17.711Z,1013.05
2018-06-03T04:47:56.653Z,1013.05
2018-06-03T04:48:56.575Z,1013.03
2018-06-03T04:49:56.517Z,1013.04
2018-06-03T04:50:56.433Z,1013.07
2018-06-03T04:51:56.366Z,1013.10
2018-06-03T04:53:17.285Z,1013.07
2018-06-03T04:53:56.226Z,1013.05
2018-06-03T04:54:56.154Z,1013.05
2018-06-03T04:55:56.080Z,1013.09
2018-06-03T04:56:56.006Z,1013.12
2018-06-03T04:57:55.945Z,1013.12
2018-06-03T04:59:16.847Z,1013.13
2018-06-03T04:59:55.808Z,1013.17
2018-06-03T05:00:55.731Z,1013.18
2018-06-03T05:01:55.704Z,1013.16
2018-06-03T05:02:55.589Z,1013.16
2018-06-03T05:03:55.560Z,1013.16
2018-06-03T05:05:16.432Z,1013.18
2018-06-03T05:05:55.363Z,1013.21
2018-06-03T05:06:55.335Z,1013.17
2018-06-03T05:07:55.226Z,1013.18
2018-06-03T05:08:55.154Z,1013.20
2018-06-03T05:09:55.146Z,1013.22
2018-06-03T05:11:15.996Z,1013.21
2018-06-03T05:11:54.936Z,1013.25
2018-06-03T05:12:54.865Z,1013.27
2018-06-03T05:13:54.799Z,1013.27
2018-06-03T05:14:54.722Z,1013.32
2018-06-03T05:15:54.652Z,1013.33
2018-06-03T05:17:15.571Z,1013.32
2018-06-03T05:17:54.513Z,1013.31
2018-06-03T05:18:54.437Z,1013.35
2018-06-03T05:19:54.371Z,1013.35
2018-06-03T05:20:54.301Z,1013.37
2018-06-03T05:21:54.308Z,1013.33
2018-06-03T05:23:15.152Z,1013.38
2018-06-03T05:23:54.087Z,1013.38
2018-06-03T05:24:54.012Z,1013.42
2018-06-03T05:25:53.939Z,1013.38
2018-06-03T05:26:53.877Z,1013.41
2018-06-03T05:27:53.799Z,1013.43
2018-06-03T05:29:14.712Z,1013.43
2018-06-03T05:29:53.658Z,1013.41
2018-06-03T05:30:53.588Z,1013.44
2018-06-03T05:31:53.513Z,1013.40
2018-06-03T05:32:53.440Z,1013.42
2018-06-03T05:33:53.375Z,1013.43
2018-06-03T05:35:14.286Z,1013.41
2018-06-03T05:35:53.232Z,1013.37
2018-06-03T05:36:53.166Z,1013.41
2018-06-03T05:37:53.102Z,1013.43
2018-06-03T05:38:53.022Z,1013.46
2018-06-03T05:39:52.951Z,1013.49
2018-06-03T05:41:13.858Z,1013.50
2018-06-03T05:41:52.802Z,1013.52
2018-06-03T05:42:52.734Z,1013.51
2018-06-03T05:43:52.663Z,1013.53
2018-06-03T05:44:52.589Z,1013.54
2018-06-03T05:45:52.530Z,1013.45
2018-06-03T05:47:13.437Z,1013.44
2018-06-03T05:47:52.380Z,1013.48
2018-06-03T05:48:52.301Z,1013.46
2018-06-03T05:49:52.248Z,1013.48
2018-06-03T05:50:52.166Z,1013.46
2018-06-03T05:51:52.093Z,1013.45
2018-06-03T05:53:13.017Z,1013.46
2018-06-03T05:53:51.950Z,1013.49
2018-06-03T05:54:51.884Z,1013.51
2018-06-03T05:55:51.817Z,1013.53
2018-06-03T05:56:51.747Z,1013.56
2018-06-03T05:57:51.672Z,1013.57
2018-06-03T05:59:12.587Z,1013.61
2018-06-03T05:59:51.532Z,1013.60
2018-06-03T06:00:51.458Z,1013.60
2018-06-03T06:01:51.388Z,1013.63
2018-06-03T06:02:51.316Z,1013.59
2018-06-03T06:03:51.245Z,1013.62
2018-06-03T06:05:12.158Z,1013.64
2018-06-03T06:05:51.115Z,1013.62
2018-06-03T06:06:51.029Z,1013.60
2018-06-03T06:07:50.965Z,1013.67
2018-06-03T06:08:50.892Z,1013.65
2018-06-03T06:09:50.824Z,1013.66
2018-06-03T06:11:11.742Z,1013.66
2018-06-03T06:11:50.686Z,1013.62
2018-06-03T06:12:50.618Z,1013.60
2018-06-03T06:13:50.558Z,1013.66
2018-06-03T06:14:50.466Z,1013.71
2018-06-03T06:15:50.396Z,1013.66
2018-06-03T06:17:11.319Z,1013.67
2018-06-03T06:17:50.255Z,1013.64
2018-06-03T06:18:50.190Z,1013.64
2018-06-03T06:19:50.118Z,1013.72
2018-06-03T06:20:50.039Z,1013.68
2018-06-03T06:21:49.981Z,1013.68
2018-06-03T06:23:10.892Z,1013.65
2018-06-03T06:23:49.837Z,1013.65
2018-06-03T06:24:49.764Z,1013.63
2018-06-03T06:25:49.698Z,1013.66
2018-06-03T06:26:49.626Z,1013.67
2018-06-03T06:27:49.555Z,1013.65
2018-06-03T06:29:10.467Z,1013.65
2018-06-03T06:29:49.413Z,1013.64
2018-06-03T06:30:49.339Z,1013.66
2018-06-03T06:31:49.273Z,1013.68
2018-06-03T06:32:49.201Z,1013.61
2018-06-03T06:33:49.130Z,1013.57
2018-06-03T06:35:10.043Z,1013.64
2018-06-03T06:35:48.998Z,1013.64
2018-06-03T06:36:48.918Z,1013.66
2018-06-03T06:37:48.858Z,1013.63
2018-06-03T06:38:48.777Z,1013.63
2018-06-03T06:39:48.711Z,1013.58
2018-06-03T06:41:09.629Z,1013.60
2018-06-03T06:41:48.573Z,1013.63
2018-06-03T06:42:48.506Z,1013.62
2018-06-03T06:43:48.430Z,1013.64
2018-06-03T06:44:48.361Z,1013.67
2018-06-03T06:45:48.295Z,1013.68
2018-06-03T06:47:09.211Z,1013.75
2018-06-03T06:47:48.151Z,1013.73
2018-06-03T06:48:48.076Z,1013.75
2018-06-03T06:49:48.021Z,1013.77
2018-06-03T06:50:47.983Z,1013.79
2018-06-03T06:51:47.871Z,1013.77
2018-06-03T06:53:08.795Z,1013.78
2018-06-03T06:53:47.751Z,1013.80
2018-06-03T06:54:47.664Z,1013.76
2018-06-03T06:55:47.598Z,1013.82
2018-06-03T06:56:47.525Z,1013.76
2018-06-03T06:57:47.458Z,1013.82
2018-06-03T06:59:08.380Z,1013.74
2018-06-03T06:59:47.317Z,1013.72
2018-06-03T07:00:47.269Z,1013.73
2018-06-03T07:01:47.178Z,1013.73
2018-06-03T07:02:47.111Z,1013.73
2018-06-03T07:03:47.042Z,1013.71
2018-06-03T07:05:07.955Z,1013.72
2018-06-03T07:05:46.905Z,1013.71
2018-06-03T07:06:46.861Z,1013.70
2018-06-03T07:07:46.761Z,1013.70
2018-06-03T07:08:46.693Z,1013.70
2018-06-03T07:09:46.629Z,1013.68
2018-06-03T07:11:07.544Z,1013.66
2018-06-03T07:11:46.485Z,1013.60
2018-06-03T07:12:46.418Z,1013.62
2018-06-03T07:13:46.386Z,1013.59
2018-06-03T07:14:46.280Z,1013.61
2018-06-03T07:15:46.217Z,1013.57
2018-06-03T07:17:07.121Z,1013.58
2018-06-03T07:17:46.068Z,1013.60
2018-06-03T07:18:45.994Z,1013.63
2018-06-03T07:19:45.938Z,1013.66
2018-06-03T07:20:45.911Z,1013.65
2018-06-03T07:21:45.801Z,1013.65
2018-06-03T07:23:06.735Z,1013.66
2018-06-03T07:23:45.657Z,1013.65
2018-06-03T07:24:45.598Z,1013.73
2018-06-03T07:25:45.528Z,1013.68
2018-06-03T07:26:45.445Z,1013.67
2018-06-03T07:27:45.378Z,1013.65
2018-06-03T07:29:06.302Z,1013.67
2018-06-03T07:29:45.253Z,1013.68
2018-06-03T07:30:45.169Z,1013.65
2018-06-03T07:31:45.100Z,1013.68
2018-06-03T07:32:45.033Z,1013.68
2018-06-03T07:33:44.965Z,1013.70
2018-06-03T07:35:05.898Z,1013.68
2018-06-03T07:35:44.824Z,1013.72
2018-06-03T07:36:44.757Z,1013.64
2018-06-03T07:37:44.684Z,1013.70
2018-06-03T07:38:44.617Z,1013.69
2018-06-03T07:39:44.558Z,1013.67
2018-06-03T07:41:05.524Z,1013.69
2018-06-03T07:41:44.432Z,1013.68
2018-06-03T07:42:44.341Z,1013.68
2018-06-03T07:43:44.280Z,1013.68
2018-06-03T07:44:44.222Z,1013.65
2018-06-03T07:45:44.135Z,1013.66
2018-06-03T07:47:05.092Z,1013.64
2018-06-03T07:47:44.002Z,1013.68
2018-06-03T07:48:43.935Z,1013.69
2018-06-03T07:49:43.874Z,1013.66
2018-06-03T07:50:43.816Z,1013.66
2018-06-03T07:51:43.728Z,1013.65
2018-06-03T07:53:04.648Z,1013.65
2018-06-03T07:53:43.597Z,1013.63
2018-06-03T07:54:43.522Z,1013.65
2018-06-03T07:55:43.453Z,1013.59
2018-06-03T07:56:43.388Z,1013.61
2018-06-03T07:57:43.308Z,1013.59
2018-06-03T07:59:04.228Z,1013.62
2018-06-03T07:59:43.186Z,1013.60
2018-06-03T08:00:43.125Z,1013.61
2018-06-03T08:01:43.041Z,1013.56
2018-06-03T08:02:42.975Z,1013.59
2018-06-03T08:03:42.903Z,1013.61
2018-06-03T08:05:03.814Z,1013.58
2018-06-03T08:05:42.764Z,1013.61
2018-06-03T08:06:42.694Z,1013.60
2018-06-03T08:07:42.631Z,1013.61
2018-06-03T08:08:42.555Z,1013.57
2018-06-03T08:09:42.486Z,1013.56
2018-06-03T08:11:03.407Z,1013.53
2018-06-03T08:11:42.354Z,1013.51
2018-06-03T08:12:42.285Z,1013.49
2018-06-03T08:13:42.240Z,1013.49
2018-06-03T08:14:42.154Z,1013.49
2018-06-03T08:15:42.082Z,1013.50
2018-06-03T08:17:02.997Z,1013.50
2018-06-03T08:17:41.940Z,1013.50
2018-06-03T08:18:41.879Z,1013.53
2018-06-03T08:19:41.817Z,1013.52
2018-06-03T08:20:41.740Z,1013.55
2018-06-03T08:21:41.671Z,1013.56
2018-06-03T08:23:02.595Z,1013.53
2018-06-03T08:23:41.544Z,1013.54
2018-06-03T08:24:41.472Z,1013.54
2018-06-03T08:25:41.409Z,1013.55
2018-06-03T08:26:41.333Z,1013.56
2018-06-03T08:27:41.264Z,1013.50
2018-06-03T08:29:02.182Z,1013.53
2018-06-03T08:29:41.126Z,1013.55
2018-06-03T08:30:41.054Z,1013.55
2018-06-03T08:31:41.080Z,1013.56
2018-06-03T08:32:40.926Z,1013.54
2018-06-03T08:33:40.864Z,1013.52
2018-06-03T08:35:01.784Z,1013.51
2018-06-03T08:35:40.723Z,1013.56
2018-06-03T08:36:40.653Z,1013.49
2018-06-03T08:37:40.583Z,1013.45
2018-06-03T08:38:40.518Z,1013.44
2018-06-03T08:39:40.457Z,1013.47
2018-06-03T08:41:01.370Z,1013.50
2018-06-03T08:41:40.311Z,1013.50
2018-06-03T08:42:40.248Z,1013.49
2018-06-03T08:43:40.205Z,1013.47
2018-06-03T08:44:40.129Z,1013.43
2018-06-03T08:45:40.047Z,1013.42
2018-06-03T08:47:00.967Z,1013.47
2018-06-03T08:47:39.912Z,1013.41
2018-06-03T08:48:39.846Z,1013.44
2018-06-03T08:49:39.802Z,1013.42
2018-06-03T08:50:39.720Z,1013.44
2018-06-03T08:51:39.645Z,1013.43
2018-06-03T08:53:00.566Z,1013.42
2018-06-03T08:53:39.522Z,1013.42
2018-06-03T08:54:39.451Z,1013.43
2018-06-03T08:55:39.392Z,1013.44
2018-06-03T08:56:39.314Z,1013.43
2018-06-03T08:57:39.251Z,1013.41
2018-06-03T08:59:00.171Z,1013.43
2018-06-03T08:59:39.116Z,1013.43
2018-06-03T09:00:39.052Z,1013.42
2018-06-03T09:01:38.995Z,1013.43
2018-06-03T09:02:38.937Z,1013.43
2018-06-03T09:03:38.857Z,1013.39
2018-06-03T09:04:59.775Z,1013.42
2018-06-03T09:05:38.723Z,1013.37
2018-06-03T09:06:38.661Z,1013.37
2018-06-03T09:07:38.586Z,1013.36
2018-06-03T09:08:38.522Z,1013.35
2018-06-03T09:09:38.456Z,1013.33
2018-06-03T09:10:59.376Z,1013.35
2018-06-03T09:11:38.329Z,1013.35
2018-06-03T09:12:38.251Z,1013.36
2018-06-03T09:13:38.199Z,1013.36
2018-06-03T09:14:38.128Z,1013.34
2018-06-03T09:15:38.059Z,1013.37
2018-06-03T09:16:58.973Z,1013.35
2018-06-03T09:17:37.926Z,1013.35
2018-06-03T09:18:37.855Z,1013.29
2018-06-03T09:19:37.790Z,1013.30
2018-06-03T09:20:37.719Z,1013.26
2018-06-03T09:21:37.657Z,1013.31
2018-06-03T09:22:58.581Z,1013.31
2018-06-03T09:23:37.526Z,1013.32
2018-06-03T09:24:37.450Z,1013.27
2018-06-03T09:25:37.393Z,1013.31
2018-06-03T09:26:37.327Z,1013.29
2018-06-03T09:27:37.273Z,1013.30
2018-06-03T09:28:58.176Z,1013.30
2018-06-03T09:29:37.139Z,1013.28
2018-06-03T09:30:37.057Z,1013.28
2018-06-03T09:31:36.997Z,1013.28
2018-06-03T09:32:36.925Z,1013.31
2018-06-03T09:33:36.855Z,1013.31
2018-06-03T09:34:57.774Z,1013.27
2018-06-03T09:35:36.721Z,1013.30
2018-06-03T09:36:36.660Z,1013.28
2018-06-03T09:37:36.588Z,1013.27
2018-06-03T09:38:36.525Z,1013.28
2018-06-03T09:39:36.473Z,1013.25
2018-06-03T09:40:57.381Z,1013.27
2018-06-03T09:41:36.355Z,1013.22
2018-06-03T09:42:36.253Z,1013.19
2018-06-03T09:43:36.230Z,1013.18
2018-06-03T09:44:36.149Z,1013.21
2018-06-03T09:45:36.052Z,1013.22
2018-06-03T09:46:56.970Z,1013.29
2018-06-03T09:47:35.921Z,1013.29
2018-06-03T09:48:35.857Z,1013.28
2018-06-03T09:49:35.790Z,1013.35
2018-06-03T09:50:35.723Z,1013.31
2018-06-03T09:51:35.657Z,1013.31
2018-06-03T09:52:56.579Z,1013.33
2018-06-03T09:53:35.529Z,1013.31
2018-06-03T09:54:35.484Z,1013.29
2018-06-03T09:55:35.420Z,1013.25
2018-06-03T09:56:35.358Z,1013.23
2018-06-03T09:57:35.279Z,1013.22
2018-06-03T09:58:56.198Z,1013.25
2018-06-03T09:59:35.155Z,1013.24
2018-06-03T10:00:35.099Z,1013.21
2018-06-03T10:01:35.028Z,1013.26
2018-06-03T10:02:34.992Z,1013.21
2018-06-03T10:03:34.909Z,1013.21
2018-06-03T10:04:55.846Z,1013.22
2018-06-03T10:05:34.799Z,1013.20
2018-06-03T10:06:34.731Z,1013.25
2018-06-03T10:07:34.730Z,1013.24
2018-06-03T10:08:34.624Z,1013.16
2018-06-03T10:09:34.575Z,1013.18
2018-06-03T10:10:55.508Z,1013.20
2018-06-03T10:11:34.451Z,1013.17
2018-06-03T10:12:34.397Z,1013.20
2018-06-03T10:13:34.331Z,1013.20
2018-06-03T10:14:34.330Z,1013.22
2018-06-03T10:15:34.231Z,1013.21
2018-06-03T10:16:55.162Z,1013.24
2018-06-03T10:17:34.112Z,1013.23
2018-06-03T10:18:34.061Z,1013.24
2018-06-03T10:19:34.004Z,1013.24
2018-06-03T10:20:33.952Z,1013.26
2018-06-03T10:21:33.949Z,1013.20
2018-06-03T10:22:54.841Z,1013.21
2018-06-03T10:23:33.781Z,1013.18
2018-06-03T10:24:33.733Z,1013.19
2018-06-03T10:25:33.678Z,1013.19
2018-06-03T10:26:33.622Z,1013.19
2018-06-03T10:27:33.605Z,1013.19
2018-06-03T10:28:54.511Z,1013.21
2018-06-03T10:29:33.480Z,1013.18
2018-06-03T10:30:33.402Z,1013.08
2018-06-03T10:31:33.342Z,1013.10
2018-06-03T10:32:33.288Z,1013.08
2018-06-03T10:33:33.282Z,1013.08
2018-06-03T10:34:54.174Z,1013.05
2018-06-03T10:35:33.138Z,1013.03
2018-06-03T10:36:33.068Z,1013.02
2018-06-03T10:37:33.017Z,1013.03
2018-06-03T10:38:32.968Z,1013.01
2018-06-03T10:39:32.907Z,1013.01
2018-06-03T10:40:53.843Z,1013.00
2018-06-03T10:41:32.814Z,1012.99
2018-06-03T10:42:32.729Z,1012.94
2018-06-03T10:43:32.675Z,1012.96
2018-06-03T10:44:32.628Z,1012.95
2018-06-03T10:45:32.556Z,1012.98
2018-06-03T10:46:53.492Z,1012.96
2018-06-03T10:47:32.456Z,1012.91
2018-06-03T10:48:32.373Z,1012.89
2018-06-03T10:49:32.334Z,1012.89
2018-06-03T10:50:32.268Z,1012.87
2018-06-03T10:51:32.194Z,1012.93
2018-06-03T10:52:53.122Z,1012.89
2018-06-03T10:53:32.079Z,1012.83
2018-06-03T10:54:32.122Z,1012.80
2018-06-03T10:55:31.962Z,1012.80
2018-06-03T10:56:31.893Z,1012.80
2018-06-03T10:57:31.835Z,1012.82
2018-06-03T10:58:52.756Z,1012.78
2018-06-03T10:59:31.710Z,1012.78
2018-06-03T11:00:31.662Z,1012.75
2018-06-03T11:01:31.578Z,1012.78
2018-06-03T11:02:31.521Z,1012.74
2018-06-03T11:03:31.491Z,1012.73
2018-06-03T11:04:52.377Z,1012.74
2018-06-03T11:05:31.377Z,1012.74
2018-06-03T11:06:31.261Z,1012.77
2018-06-03T11:07:31.202Z,1012.75
2018-06-03T11:08:31.154Z,1012.75
2018-06-03T11:09:31.068Z,1012.71
2018-06-03T11:10:51.998Z,1012.70
2018-06-03T11:11:30.957Z,1012.73
2018-06-03T11:12:30.877Z,1012.68
2018-06-03T11:13:30.817Z,1012.70
2018-06-03T11:14:30.841Z,1012.72
2018-06-03T11:15:30.683Z,1012.83
2018-06-03T11:16:51.624Z,1012.87
2018-06-03T11:17:30.579Z,1012.91
2018-06-03T11:18:30.490Z,1012.90
2018-06-03T11:19:30.461Z,1012.82
2018-06-03T11:20:30.370Z,1012.83
2018-06-03T11:21:30.309Z,1012.83
2018-06-03T11:22:51.228Z,1012.83
2018-06-03T11:23:30.182Z,1012.82
2018-06-03T11:24:30.126Z,1012.80
2018-06-03T11:25:30.062Z,1012.65
2018-06-03T11:26:29.996Z,1012.61
2018-06-03T11:27:30.015Z,1012.62
2018-06-03T11:28:50.875Z,1012.67
2018-06-03T11:29:29.819Z,1012.58
2018-06-03T11:30:29.756Z,1012.59
2018-06-03T11:31:29.701Z,1012.56
2018-06-03T11:32:29.628Z,1012.53
2018-06-03T11:33:29.571Z,1012.49
2018-06-03T11:34:50.537Z,1012.49
2018-06-03T11:35:29.453Z,1012.54
2018-06-03T11:36:29.387Z,1012.54
2018-06-03T11:37:29.330Z,1012.56
2018-06-03T11:38:29.270Z,1012.60
2018-06-03T11:39:29.227Z,1012.59
2018-06-03T11:40:50.131Z,1012.68
2018-06-03T11:41:29.085Z,1012.59
2018-06-03T11:42:29.028Z,1012.60
2018-06-03T11:43:28.957Z,1012.51
2018-06-03T11:44:28.899Z,1012.48
2018-06-03T11:45:28.838Z,1012.44
2018-06-03T11:46:49.765Z,1012.44
2018-06-03T11:47:28.752Z,1012.42
2018-06-03T11:48:28.647Z,1012.44
2018-06-03T11:49:28.584Z,1012.52
2018-06-03T11:50:28.531Z,1012.41
2018-06-03T11:51:28.506Z,1012.39
2018-06-03T11:52:49.391Z,1012.39
2018-06-03T11:53:28.343Z,1012.36
2018-06-03T11:54:28.279Z,1012.38
2018-06-03T11:55:28.216Z,1012.40
2018-06-03T11:56:28.158Z,1012.39
2018-06-03T11:57:28.084Z,1012.39
2018-06-03T11:58:49.034Z,1012.40
2018-06-03T11:59:27.962Z,1012.37
2018-06-03T12:00:27.931Z,1012.37
2018-06-03T12:01:27.843Z,1012.40
2018-06-03T12:02:27.784Z,1012.37
2018-06-03T12:03:27.737Z,1012.37
2018-06-03T12:04:48.640Z,1012.39